createdAt,value
2019-05-23T00:02:02.717Z,3.90
2019-05-23T00:04:29.339Z,3.60
2019-05-23T00:06:56.013Z,3.80
2019-05-23T00:09:22.631Z,3.37
2019-05-23T00:11:49.259Z,3.77
2019-05-23T00:14:15.848Z,3.70
2019-05-23T00:16:42.548Z,4.00
2019-05-23T00:19:09.256Z,4.10
2019-05-23T00:24:11.373Z,4.47
2019-05-23T00:26:38.152Z,3.90
2019-05-23T00:29:10.040Z,4.17
2019-05-23T00:31:33.235Z,3.80
2019-05-23T00:33:59.889Z,3.77
2019-05-23T00:36:26.551Z,3.60
2019-05-23T00:38:53.205Z,4.13
2019-05-23T00:41:19.799Z,4.10
2019-05-23T00:43:46.584Z,3.70
2019-05-23T00:46:13.198Z,3.67
2019-05-23T00:48:39.783Z,3.93
2019-05-23T00:51:06.562Z,3.23
2019-05-23T00:53:33.235Z,3.50
2019-05-23T00:55:59.866Z,3.53
2019-05-23T00:58:26.565Z,4.27
2019-05-23T01:00:54.997Z,4.10
2019-05-23T01:03:21.595Z,3.60
2019-05-23T01:05:48.236Z,3.47
2019-05-23T01:08:14.821Z,3.77
2019-05-23T01:10:41.424Z,4.60
2019-05-23T01:13:08.144Z,3.77
2019-05-23T01:15:34.969Z,3.83
2019-05-23T01:18:01.573Z,3.47
2019-05-23T01:20:29.490Z,3.00
2019-05-23T01:22:56.109Z,3.80
2019-05-23T01:25:22.936Z,3.60
2019-05-23T01:27:51.919Z,2.87
2019-05-23T01:30:18.553Z,3.93
2019-05-23T01:32:48.981Z,3.70
2019-05-23T01:35:15.619Z,3.63
2019-05-23T01:37:42.225Z,3.27
2019-05-23T01:40:11.556Z,4.23
2019-05-23T01:42:40.330Z,3.40
2019-05-23T01:45:09.141Z,3.33
2019-05-23T01:47:37.893Z,4.17
2019-05-23T01:50:04.647Z,3.40
2019-05-23T01:52:31.253Z,4.07
2019-05-23T01:54:57.872Z,3.50
2019-05-23T01:57:25.485Z,3.40
2019-05-23T02:00:08.363Z,4.40
2019-05-23T02:02:20.451Z,4.93
2019-05-23T02:04:47.130Z,4.37
2019-05-23T02:07:13.724Z,3.90
2019-05-23T02:09:40.340Z,3.47
2019-05-23T02:12:09.457Z,4.10
2019-05-23T02:14:36.040Z,4.80
2019-05-23T02:17:02.909Z,3.60
2019-05-23T02:19:29.487Z,3.93
2019-05-23T02:21:57.284Z,4.03
2019-05-23T02:24:23.879Z,3.20
2019-05-23T02:26:50.533Z,4.00
2019-05-23T02:29:20.788Z,3.97
2019-05-23T02:31:47.408Z,4.27
2019-05-23T02:34:15.472Z,3.83
2019-05-23T02:36:42.145Z,3.83
2019-05-23T02:39:12.469Z,3.80
2019-05-23T02:41:39.125Z,4.63
2019-05-23T02:44:08.245Z,4.13
2019-05-23T02:46:38.338Z,5.07
2019-05-23T02:49:07.072Z,4.43
2019-05-23T02:51:33.887Z,4.80
2019-05-23T02:54:01.055Z,4.17
2019-05-23T02:56:27.682Z,5.00
2019-05-23T02:58:54.366Z,4.07
2019-05-23T03:01:21.014Z,4.40
2019-05-23T03:03:47.748Z,4.50
2019-05-23T03:06:14.486Z,4.23
2019-05-23T03:08:41.071Z,3.90
2019-05-23T03:11:07.746Z,4.27
2019-05-23T03:13:34.335Z,4.20
2019-05-23T03:16:00.918Z,5.00
2019-05-23T03:18:27.550Z,3.87
2019-05-23T03:20:54.138Z,4.43
2019-05-23T03:23:20.731Z,4.47
2019-05-23T03:25:47.393Z,4.57
2019-05-23T03:28:14.050Z,4.43
2019-05-23T03:30:40.659Z,4.33
2019-05-23T03:33:07.288Z,4.27
2019-05-23T03:35:33.872Z,5.60
2019-05-23T03:38:03.323Z,4.70
2019-05-23T03:40:30.011Z,4.00
2019-05-23T03:42:58.729Z,4.00
2019-05-23T03:45:25.302Z,4.50
2019-05-23T03:47:51.929Z,4.63
2019-05-23T03:50:19.524Z,4.67
2019-05-23T03:52:46.162Z,3.70
2019-05-23T03:55:12.782Z,4.00
2019-05-23T03:57:39.487Z,4.40
2019-05-23T04:00:08.193Z,6.13
2019-05-23T04:02:34.894Z,3.93
2019-05-23T04:05:01.524Z,5.57
2019-05-23T04:07:28.217Z,4.47
2019-05-23T04:09:55.477Z,5.00
2019-05-23T04:12:22.265Z,5.03
2019-05-23T04:14:48.876Z,6.40
2019-05-23T04:17:15.529Z,4.70
2019-05-23T04:19:42.182Z,6.00
2019-05-23T04:22:08.756Z,5.63
2019-05-23T04:24:35.438Z,5.57
2019-05-23T04:27:02.023Z,5.10
2019-05-23T04:29:29.415Z,4.83
2019-05-23T04:32:07.020Z,4.70
2019-05-23T04:34:24.435Z,9.17
2019-05-23T04:36:51.036Z,5.87
2019-05-23T04:39:21.589Z,5.57
2019-05-23T04:41:50.235Z,4.60
2019-05-23T04:44:16.566Z,5.90
2019-05-23T04:46:43.222Z,5.83
2019-05-23T04:49:09.808Z,5.80
2019-05-23T04:51:36.424Z,8.30
2019-05-23T04:54:03.103Z,5.43
2019-05-23T04:56:29.686Z,6.10
2019-05-23T04:58:56.311Z,5.57
2019-05-23T05:01:22.976Z,6.80
2019-05-23T05:03:49.571Z,5.87
2019-05-23T05:06:16.251Z,5.23
2019-05-23T05:08:45.010Z,5.60
2019-05-23T05:11:11.624Z,6.07
2019-05-23T05:13:38.242Z,5.63
2019-05-23T05:16:04.873Z,5.30
2019-05-23T05:18:31.473Z,5.80
2019-05-23T05:20:58.213Z,4.97
2019-05-23T05:23:24.834Z,5.37
2019-05-23T05:25:51.416Z,5.87
2019-05-23T05:28:18.741Z,6.27
2019-05-23T05:30:45.370Z,5.00
2019-05-23T05:33:12.023Z,6.53
2019-05-23T05:35:38.592Z,5.30
2019-05-23T05:38:05.323Z,9.17
2019-05-23T05:40:31.931Z,7.67
2019-05-23T05:42:58.603Z,6.80
2019-05-23T05:45:25.258Z,6.70
2019-05-23T05:47:51.876Z,7.90
2019-05-23T05:50:18.490Z,6.20
2019-05-23T05:52:45.107Z,7.47
2019-05-23T05:57:47.451Z,6.27
2019-05-23T06:00:14.479Z,10.40
2019-05-23T06:02:41.101Z,10.10
2019-05-23T06:05:07.794Z,7.63
2019-05-23T06:07:39.336Z,6.80
2019-05-23T06:10:05.978Z,10.03
2019-05-23T06:12:32.567Z,6.90
2019-05-23T06:15:00.980Z,8.07
2019-05-23T06:17:27.608Z,8.37
2019-05-23T06:19:54.264Z,8.23
2019-05-23T06:22:21.113Z,7.13
2019-05-23T06:24:52.478Z,7.23
2019-05-23T06:27:16.219Z,8.80
2019-05-23T06:29:43.113Z,7.63
2019-05-23T06:32:09.830Z,8.17
2019-05-23T06:34:38.748Z,8.07
2019-05-23T06:37:07.292Z,7.23
2019-05-23T06:39:36.293Z,8.03
2019-05-23T06:42:07.241Z,6.53
2019-05-23T06:44:34.924Z,7.20
2019-05-23T06:47:04.708Z,6.73
2019-05-23T06:49:32.325Z,8.53
2019-05-23T06:51:59.901Z,10.03
2019-05-23T06:54:28.972Z,9.50
2019-05-23T06:56:56.934Z,7.57
2019-05-23T06:59:26.929Z,8.17
2019-05-23T07:01:54.963Z,9.10
2019-05-23T07:04:21.800Z,8.30
2019-05-23T07:09:26.924Z,6.70
2019-05-23T07:11:56.580Z,7.17
2019-05-23T07:19:39.189Z,7.53
2019-05-23T07:22:06.846Z,7.13
2019-05-23T07:30:00.166Z,6.80
2019-05-23T07:32:27.721Z,7.57
2019-05-23T07:34:55.345Z,7.53
2019-05-23T07:37:24.506Z,8.10
2019-05-23T07:39:52.164Z,7.40
2019-05-23T07:42:18.784Z,5.90
2019-05-23T07:44:49.006Z,8.43
2019-05-23T07:47:19.254Z,6.17
2019-05-23T07:49:49.139Z,6.73
2019-05-23T07:52:18.976Z,6.60
2019-05-23T07:54:46.657Z,6.33
2019-05-23T07:57:13.573Z,6.72
2019-05-23T07:59:43.406Z,7.30
2019-05-23T08:02:10.083Z,5.60
2019-05-23T08:07:14.713Z,5.67
2019-05-23T08:09:43.680Z,5.83
2019-05-23T08:12:11.448Z,5.07
2019-05-23T08:35:40.589Z,4.87
2019-05-23T08:38:09.188Z,3.90
2019-05-23T08:40:37.962Z,4.43
2019-05-23T08:43:04.851Z,3.17
2019-05-23T08:45:34.270Z,3.10
2019-05-23T08:48:06.076Z,4.67
2019-05-23T08:50:38.217Z,2.98
2019-05-23T08:53:04.000Z,2.60
2019-05-23T08:58:09.393Z,2.37
2019-05-23T09:00:36.106Z,3.03
2019-05-23T09:03:05.347Z,2.87
2019-05-23T09:05:32.501Z,2.47
2019-05-23T09:07:59.228Z,2.03
2019-05-23T09:10:29.737Z,2.13
2019-05-23T09:12:56.355Z,1.73
2019-05-23T09:15:22.940Z,2.50
2019-05-23T09:17:54.042Z,1.80
2019-05-23T09:20:21.102Z,2.00
2019-05-23T09:22:55.068Z,2.30
2019-05-23T09:25:32.818Z,2.07
2019-05-23T09:49:11.126Z,1.70
2019-05-23T09:51:37.175Z,1.70
2019-05-23T20:22:55.654Z,3.03
2019-05-23T20:25:26.284Z,3.20
2019-05-23T20:27:58.055Z,2.83
2019-05-23T20:30:27.238Z,2.60
2019-05-23T20:35:45.283Z,2.70
2019-05-23T20:43:24.829Z,2.50
2019-05-23T20:45:50.913Z,2.83
2019-05-23T20:48:23.605Z,3.30
2019-05-23T20:50:53.414Z,3.03
2019-05-23T20:53:22.097Z,2.80
2019-05-23T20:55:48.911Z,2.60
2019-05-23T20:58:18.441Z,3.30
2019-05-23T21:00:46.238Z,2.67
2019-05-23T21:03:12.834Z,2.70
2019-05-23T21:05:46.282Z,3.50
2019-05-23T21:08:17.085Z,4.10
2019-05-23T21:10:45.269Z,4.10
2019-05-23T21:23:33.467Z,3.27
2019-05-23T21:26:01.076Z,3.10
2019-05-23T21:28:30.023Z,2.70
2019-05-23T21:36:08.525Z,3.60
2019-05-23T21:38:35.385Z,3.00
2019-05-23T21:41:03.311Z,2.33
2019-05-23T21:46:08.605Z,2.40
2019-05-23T21:48:41.488Z,2.53
2019-05-23T21:53:47.413Z,2.60
2019-05-23T21:56:14.034Z,2.77
2019-05-23T21:58:45.319Z,2.60
2019-05-23T22:01:14.923Z,3.43
2019-05-23T22:03:41.295Z,2.60
2019-05-23T22:08:45.052Z,2.20
2019-05-23T22:11:16.003Z,2.50
2019-05-23T22:16:19.627Z,2.40
2019-05-23T22:18:47.261Z,2.23
2019-05-23T22:21:19.558Z,2.50
2019-05-23T22:23:46.152Z,2.93
2019-05-23T22:26:17.367Z,3.00
2019-05-23T22:41:33.556Z,2.83
2019-05-23T22:44:07.212Z,2.90
2019-05-23T22:46:44.730Z,2.97
2019-05-23T22:51:56.933Z,3.07
2019-05-23T22:57:03.083Z,2.60
2019-05-23T22:59:32.987Z,3.02
2019-05-23T23:02:00.378Z,2.67
2019-05-23T23:17:18.278Z,3.45
2019-05-23T23:19:49.198Z,2.77
2019-05-23T23:22:21.072Z,2.20
2019-05-23T23:24:48.709Z,2.37
2019-05-23T23:27:18.294Z,2.63
2019-05-23T23:40:03.996Z,2.87
2019-05-23T23:42:31.302Z,2.67
2019-05-23T23:47:37.054Z,2.57
2019-05-23T23:50:04.692Z,2.57
2019-05-23T23:55:17.882Z,2.53
2019-05-23T23:57:45.560Z,2.57
